createdAt,value
2023-01-30T00:01:17.840Z,36.00
2023-01-30T00:03:49.266Z,42.40
2023-01-30T00:06:17.968Z,37.37
2023-01-30T00:08:46.628Z,39.27
2023-01-30T00:11:16.768Z,36.40
2023-01-30T00:13:45.130Z,41.17
2023-01-30T00:16:14.145Z,36.57
2023-01-30T00:18:43.876Z,38.97
2023-01-30T00:21:14.771Z,40.57
2023-01-30T00:23:43.113Z,40.27
2023-01-30T00:26:11.951Z,40.90
2023-01-30T00:28:40.747Z,38.03
2023-01-30T00:31:09.491Z,39.07
2023-01-30T00:33:38.994Z,39.93
2023-01-30T00:36:07.981Z,39.83
2023-01-30T00:38:37.915Z,41.33
2023-01-30T00:41:06.492Z,43.87
2023-01-30T00:43:52.011Z,43.23
2023-01-30T00:46:45.150Z,42.43
2023-01-30T00:49:13.635Z,42.67
2023-01-30T00:51:41.824Z,43.67
2023-01-30T00:54:11.395Z,40.33
2023-01-30T00:56:39.567Z,39.10
2023-01-30T00:59:07.710Z,45.53
2023-01-30T01:01:35.905Z,47.77
2023-01-30T01:04:04.123Z,48.07
2023-01-30T01:06:32.345Z,42.47
2023-01-30T01:09:00.477Z,46.27
2023-01-30T01:11:30.369Z,47.47
2023-01-30T01:14:00.863Z,51.37
2023-01-30T01:16:30.764Z,51.10
2023-01-30T01:18:59.307Z,49.17
2023-01-30T01:21:27.621Z,53.47
2023-01-30T01:23:58.702Z,48.37
2023-01-30T01:26:27.530Z,52.87
2023-01-30T01:28:58.249Z,46.23
2023-01-30T01:31:26.916Z,53.17
2023-01-30T01:33:55.143Z,50.27
2023-01-30T01:36:51.625Z,50.63
2023-01-30T01:39:12.004Z,49.37
2023-01-30T01:41:39.146Z,54.07
2023-01-30T01:44:10.081Z,46.97
2023-01-30T01:46:41.567Z,53.90
2023-01-30T01:49:16.618Z,51.77
2023-01-30T01:51:51.882Z,55.13
2023-01-30T01:54:26.800Z,53.40
2023-01-30T01:56:55.239Z,54.47
2023-01-30T01:59:29.550Z,47.40
2023-01-30T02:02:02.151Z,53.07
2023-01-30T02:04:50.579Z,50.70
2023-01-30T02:07:22.132Z,53.20
2023-01-30T02:09:51.703Z,51.10
2023-01-30T02:12:20.041Z,50.20
2023-01-30T02:14:50.877Z,53.03
2023-01-30T02:17:19.108Z,60.57
2023-01-30T02:19:53.317Z,46.90
2023-01-30T02:22:38.118Z,48.53
2023-01-30T02:25:48.894Z,49.47
2023-01-30T02:28:38.133Z,47.33
2023-01-30T02:31:28.848Z,49.53
2023-01-30T02:34:12.259Z,45.10
2023-01-30T02:36:50.369Z,45.30
2023-01-30T02:39:30.246Z,47.60
2023-01-30T02:42:06.655Z,48.00
2023-01-30T02:44:43.762Z,44.57
2023-01-30T02:47:17.175Z,45.13
2023-01-30T02:49:50.676Z,46.47
2023-01-30T02:52:18.789Z,46.47
2023-01-30T02:54:46.979Z,42.33
2023-01-30T02:57:21.307Z,49.97
2023-01-30T02:59:53.476Z,43.63
2023-01-30T03:02:50.719Z,46.60
2023-01-30T03:05:32.087Z,43.90
2023-01-30T03:08:10.317Z,46.60
2023-01-30T03:10:43.882Z,43.20
2023-01-30T03:13:20.512Z,42.37
2023-01-30T03:15:53.246Z,45.77
2023-01-30T03:18:23.355Z,45.90
2023-01-30T03:20:52.475Z,45.13
2023-01-30T03:23:20.636Z,39.63
2023-01-30T03:25:49.924Z,43.27
2023-01-30T03:28:22.032Z,46.40
2023-01-30T03:30:50.387Z,40.70
2023-01-30T03:33:18.608Z,40.60
2023-01-30T03:35:48.302Z,42.63
2023-01-30T03:38:16.485Z,40.10
2023-01-30T03:40:44.911Z,40.30
2023-01-30T03:43:13.048Z,39.60
2023-01-30T03:45:41.143Z,44.93
2023-01-30T03:48:09.334Z,41.47
2023-01-30T03:50:37.465Z,98.10
2023-01-30T03:53:06.947Z,99.37
2023-01-30T03:55:35.245Z,58.43
2023-01-30T03:58:03.524Z,38.50
2023-01-30T04:00:31.696Z,38.27
2023-01-30T04:03:00.013Z,36.77
2023-01-30T04:05:28.282Z,38.37
2023-01-30T04:07:58.112Z,35.27
2023-01-30T04:10:27.907Z,38.47
2023-01-30T04:12:56.112Z,35.30
2023-01-30T04:15:24.454Z,35.03
2023-01-30T04:17:52.617Z,34.73
2023-01-30T04:20:21.181Z,36.87
2023-01-30T04:22:49.301Z,32.87
2023-01-30T04:25:18.042Z,31.67
2023-01-30T04:27:47.729Z,32.93
2023-01-30T04:30:15.934Z,34.37
2023-01-30T04:32:44.162Z,37.47
2023-01-30T04:35:12.774Z,29.23
2023-01-30T04:37:40.996Z,32.20
2023-01-30T04:40:10.217Z,35.20
2023-01-30T04:42:38.446Z,34.17
2023-01-30T04:45:09.413Z,32.63
2023-01-30T04:47:37.689Z,38.40
2023-01-30T04:50:06.486Z,32.40
2023-01-30T04:52:34.643Z,35.60
2023-01-30T04:55:02.815Z,35.40
2023-01-30T04:57:31.000Z,32.07
2023-01-30T04:59:59.089Z,35.77
2023-01-30T05:02:28.730Z,34.57
2023-01-30T05:04:56.909Z,35.40
2023-01-30T05:07:25.065Z,33.90
2023-01-30T05:09:53.106Z,32.23
2023-01-30T05:12:21.379Z,33.43
2023-01-30T05:14:49.537Z,35.67
2023-01-30T05:17:17.964Z,33.90
2023-01-30T05:19:47.470Z,32.37
2023-01-30T05:22:15.682Z,31.70
2023-01-30T05:24:43.798Z,33.70
2023-01-30T05:27:11.970Z,31.23
2023-01-30T05:29:40.153Z,33.23
2023-01-30T05:32:08.517Z,28.33
2023-01-30T05:34:36.681Z,33.47
2023-01-30T05:37:06.305Z,31.37
2023-01-30T05:39:34.531Z,30.43
2023-01-30T05:42:02.687Z,35.57
2023-01-30T05:44:34.882Z,33.57
2023-01-30T05:47:03.135Z,34.77
2023-01-30T05:49:31.279Z,32.67
2023-01-30T05:51:59.412Z,30.07
2023-01-30T05:54:29.956Z,36.53
2023-01-30T05:56:58.105Z,30.00
2023-01-30T05:59:26.709Z,36.63
2023-01-30T06:01:54.835Z,32.47
2023-01-30T06:04:23.112Z,35.70
2023-01-30T06:06:51.824Z,33.43
2023-01-30T06:09:19.966Z,34.17
2023-01-30T06:11:52.438Z,35.97
2023-01-30T06:14:21.304Z,36.33
2023-01-30T06:16:49.771Z,37.47
2023-01-30T06:19:17.965Z,33.73
2023-01-30T06:21:46.234Z,35.13
2023-01-30T06:24:14.582Z,37.43
2023-01-30T06:26:42.796Z,36.40
2023-01-30T06:29:12.581Z,35.47
2023-01-30T06:31:40.797Z,37.33
2023-01-30T06:34:09.019Z,34.93
2023-01-30T06:36:37.288Z,33.73
2023-01-30T06:39:05.597Z,35.00
2023-01-30T06:41:33.808Z,37.27
2023-01-30T06:44:02.095Z,34.23
2023-01-30T06:46:31.616Z,32.90
2023-01-30T06:48:59.799Z,31.47
2023-01-30T06:51:27.874Z,34.13
2023-01-30T06:53:56.012Z,33.17
2023-01-30T06:56:24.189Z,28.93
2023-01-30T06:58:52.261Z,33.87
2023-01-30T07:01:21.332Z,42.13
2023-01-30T07:03:50.980Z,41.83
2023-01-30T07:06:19.217Z,32.03
2023-01-30T07:08:47.473Z,35.47
2023-01-30T07:11:15.658Z,33.43
2023-01-30T07:13:43.809Z,30.90
2023-01-30T07:16:13.278Z,37.87
2023-01-30T07:18:41.467Z,28.40
2023-01-30T07:21:11.118Z,35.97
2023-01-30T07:23:39.331Z,30.87
2023-01-30T07:26:07.936Z,30.37
2023-01-30T07:28:36.199Z,27.87
2023-01-30T07:31:04.415Z,38.03
2023-01-30T07:33:32.601Z,29.00
2023-01-30T07:36:00.844Z,41.57
2023-01-30T07:38:30.433Z,35.07
2023-01-30T07:40:59.394Z,34.37
2023-01-30T07:43:27.654Z,33.67
2023-01-30T07:45:55.748Z,33.27
2023-01-30T07:48:23.995Z,32.00
2023-01-30T07:50:52.669Z,37.77
2023-01-30T07:53:20.963Z,38.90
2023-01-30T07:55:50.585Z,32.33
2023-01-30T07:58:18.786Z,34.87
2023-01-30T08:00:46.936Z,39.00
2023-01-30T08:03:18.329Z,34.83
2023-01-30T08:05:47.912Z,33.30
2023-01-30T08:08:16.391Z,47.33
2023-01-30T08:10:45.668Z,39.40
2023-01-30T08:13:15.555Z,42.30
2023-01-30T08:15:43.710Z,42.83
2023-01-30T08:18:11.886Z,42.10
2023-01-30T08:20:40.077Z,45.67
2023-01-30T08:23:08.267Z,43.50
2023-01-30T08:25:37.139Z,46.47
2023-01-30T08:28:06.102Z,43.33
2023-01-30T08:30:35.820Z,50.23
2023-01-30T08:33:04.149Z,87.13
2023-01-30T08:35:32.273Z,45.57
2023-01-30T08:38:00.564Z,42.00
2023-01-30T08:40:28.635Z,34.27
2023-01-30T08:42:56.738Z,63.17
2023-01-30T08:45:24.915Z,41.63
2023-01-30T08:47:54.395Z,48.40
2023-01-30T08:50:22.530Z,40.53
2023-01-30T08:52:50.620Z,36.40
2023-01-30T08:55:19.163Z,35.97
2023-01-30T08:57:47.412Z,31.30
2023-01-30T09:00:17.231Z,30.40
2023-01-30T09:02:48.507Z,32.37
2023-01-30T09:05:18.510Z,52.30
2023-01-30T09:07:46.672Z,31.73
2023-01-30T09:10:14.996Z,42.53
2023-01-30T09:12:43.374Z,55.47
2023-01-30T09:15:12.451Z,25.87
2023-01-30T09:17:41.069Z,28.37
2023-01-30T09:20:11.070Z,25.00
2023-01-30T09:22:41.055Z,22.70
2023-01-30T09:25:10.157Z,25.13
2023-01-30T09:27:38.664Z,23.53
2023-01-30T09:30:08.548Z,9.97
2023-01-30T09:32:37.565Z,25.53
2023-01-30T09:35:06.452Z,23.00
2023-01-30T09:37:34.823Z,21.43
2023-01-30T09:40:05.501Z,18.27
2023-01-30T09:42:46.517Z,16.20
2023-01-30T09:45:27.972Z,19.97
2023-01-30T09:48:02.783Z,17.23
2023-01-30T09:50:53.474Z,11.10
2023-01-30T09:53:28.653Z,7.03
2023-01-30T09:55:59.855Z,8.00
2023-01-30T09:58:39.165Z,5.87
2023-01-30T10:01:14.179Z,5.57
2023-01-30T10:03:51.617Z,5.13
2023-01-30T10:06:20.512Z,4.70
2023-01-30T10:08:54.261Z,5.17
2023-01-30T10:11:44.180Z,4.03
2023-01-30T10:14:37.039Z,4.40
2023-01-30T10:17:25.827Z,5.37
2023-01-30T10:20:08.281Z,4.53
2023-01-30T10:22:46.371Z,3.53
2023-01-30T10:25:29.266Z,4.30
2023-01-30T10:28:05.237Z,4.13
2023-01-30T10:30:35.506Z,3.27
2023-01-30T10:33:08.531Z,5.10
2023-01-30T10:35:41.181Z,4.13
2023-01-30T10:38:17.682Z,2.90
2023-01-30T10:40:53.862Z,3.80
2023-01-30T10:43:31.038Z,3.90
2023-01-30T10:46:06.429Z,4.20
2023-01-30T10:48:54.313Z,4.10
2023-01-30T10:51:44.270Z,3.87
2023-01-30T10:54:19.973Z,3.00
2023-01-30T10:57:09.506Z,3.23
2023-01-30T10:59:51.516Z,4.83
2023-01-30T11:02:28.487Z,3.80
2023-01-30T11:05:01.620Z,3.80
2023-01-30T11:07:32.926Z,2.90
2023-01-30T11:10:02.395Z,5.40
2023-01-30T11:12:31.207Z,3.50
2023-01-30T11:15:04.496Z,5.00
2023-01-30T11:17:36.911Z,5.30
2023-01-30T11:20:13.681Z,6.50
2023-01-30T11:22:48.817Z,4.00
2023-01-30T11:25:19.761Z,3.77
2023-01-30T11:27:55.986Z,5.43
2023-01-30T11:30:30.818Z,3.60
2023-01-30T11:33:12.578Z,3.67
2023-01-30T11:35:46.615Z,3.57
2023-01-30T11:38:23.696Z,2.93
2023-01-30T11:41:02.570Z,5.53
2023-01-30T11:43:32.240Z,4.47
2023-01-30T11:46:02.911Z,4.30
2023-01-30T11:49:02.996Z,2.93
2023-01-30T11:51:26.647Z,3.00
2023-01-30T11:53:59.033Z,2.67
2023-01-30T11:56:34.871Z,4.17
2023-01-30T11:59:07.499Z,5.77
2023-01-30T12:01:50.324Z,3.20
2023-01-30T12:04:21.179Z,4.13
2023-01-30T12:07:22.119Z,3.93
2023-01-30T12:13:15.017Z,4.87
2023-01-30T12:15:52.043Z,6.33
2023-01-30T12:18:40.395Z,5.00
2023-01-30T12:21:53.679Z,3.43
2023-01-30T12:24:27.258Z,6.83
2023-01-30T12:27:19.144Z,4.13
2023-01-30T12:30:00.569Z,4.57
2023-01-30T12:35:46.072Z,4.13
2023-01-30T12:38:55.092Z,5.67
2023-01-30T12:45:17.492Z,3.80
2023-01-30T12:48:30.352Z,6.67
2023-01-30T12:51:18.882Z,7.30
2023-01-30T13:00:17.205Z,4.03
2023-01-30T13:03:13.353Z,5.60
2023-01-30T13:06:06.002Z,3.77
2023-01-30T13:09:22.429Z,6.63
2023-01-30T13:12:09.765Z,6.33
2023-01-30T14:10:15.010Z,5.13
2023-01-30T14:12:45.881Z,8.97
2023-01-30T14:15:28.878Z,10.73
2023-01-30T14:18:07.342Z,5.53
2023-01-30T14:20:37.066Z,6.67
2023-01-30T14:23:15.597Z,5.77
2023-01-30T14:25:50.507Z,5.57
2023-01-30T14:28:51.948Z,5.03
2023-01-30T14:31:53.884Z,5.07
2023-01-30T14:35:06.794Z,9.50
2023-01-30T14:38:06.074Z,10.43
2023-01-30T14:40:44.762Z,8.60
2023-01-30T14:43:54.281Z,11.13
2023-01-30T14:46:56.931Z,14.70
2023-01-30T14:49:31.953Z,9.23
2023-01-30T14:52:00.345Z,10.43
2023-01-30T14:54:41.912Z,10.47
2023-01-30T14:57:20.797Z,10.07
2023-01-30T15:00:13.022Z,9.43
2023-01-30T15:02:44.715Z,12.57
2023-01-30T15:05:16.397Z,10.67
2023-01-30T15:07:48.257Z,8.90
2023-01-30T15:10:33.852Z,20.87
2023-01-30T15:13:19.933Z,16.87
2023-01-30T15:15:59.239Z,10.63
2023-01-30T15:19:02.525Z,10.87
2023-01-30T15:21:56.059Z,13.53
2023-01-30T15:24:48.999Z,12.37
2023-01-30T15:27:27.280Z,13.83
2023-01-30T15:30:12.604Z,15.07
2023-01-30T15:32:43.186Z,19.70
2023-01-30T15:35:25.605Z,8.97
2023-01-30T15:37:56.247Z,11.57
2023-01-30T15:40:27.111Z,11.33
2023-01-30T15:43:08.945Z,13.87
2023-01-30T15:45:45.897Z,15.63
2023-01-30T15:48:48.348Z,25.43
2023-01-30T15:51:20.551Z,12.30
2023-01-30T15:53:49.212Z,16.73
2023-01-30T15:56:21.499Z,18.80
2023-01-30T15:58:50.235Z,15.33
2023-01-30T16:01:21.158Z,13.27
2023-01-30T16:03:51.205Z,11.47
2023-01-30T16:06:30.397Z,14.57
2023-01-30T16:09:01.680Z,9.87
2023-01-30T16:11:40.873Z,9.53
2023-01-30T16:14:14.042Z,13.30
2023-01-30T16:16:45.481Z,11.53
2023-01-30T16:19:26.443Z,13.50
2023-01-30T16:21:57.006Z,16.93
2023-01-30T16:24:29.245Z,13.77
2023-01-30T16:27:01.412Z,12.10
2023-01-30T16:29:31.858Z,12.37
2023-01-30T16:32:00.322Z,12.93
2023-01-30T16:34:34.930Z,12.27
2023-01-30T16:37:07.588Z,9.23
2023-01-30T16:39:37.038Z,14.67
2023-01-30T16:42:19.856Z,11.43
2023-01-30T16:44:47.953Z,12.13
2023-01-30T16:47:25.011Z,21.23
2023-01-30T16:49:55.677Z,13.17
2023-01-30T16:52:26.705Z,14.17
2023-01-30T16:54:57.429Z,15.37
2023-01-30T16:57:42.556Z,20.40
2023-01-30T17:00:22.821Z,14.87
2023-01-30T17:02:54.395Z,9.83
2023-01-30T17:05:26.457Z,18.40
2023-01-30T17:07:56.333Z,14.50
2023-01-30T17:10:48.605Z,17.03
2023-01-30T17:13:34.031Z,17.97
2023-01-30T17:16:28.629Z,10.80
2023-01-30T17:18:59.708Z,13.53
2023-01-30T17:21:32.139Z,15.60
2023-01-30T17:24:02.730Z,17.80
2023-01-30T17:26:31.730Z,13.53
2023-01-30T17:29:00.163Z,15.33
2023-01-30T17:31:28.366Z,14.90
2023-01-30T17:33:56.431Z,15.60
2023-01-30T17:36:27.447Z,14.63
2023-01-30T17:38:58.739Z,12.20
2023-01-30T17:41:30.284Z,12.17
2023-01-30T17:43:58.700Z,16.27
2023-01-30T17:46:34.720Z,16.57
2023-01-30T17:49:03.051Z,16.33
2023-01-30T17:51:31.127Z,20.67
2023-01-30T17:54:00.561Z,9.53
2023-01-30T17:56:35.743Z,13.27
2023-01-30T17:59:05.613Z,16.17
2023-01-30T18:01:33.885Z,14.03
2023-01-30T18:04:02.022Z,15.77
2023-01-30T18:06:32.126Z,13.20
2023-01-30T18:09:01.723Z,10.87
2023-01-30T18:11:29.829Z,17.10
2023-01-30T18:13:58.102Z,19.90
2023-01-30T18:16:30.864Z,12.43
2023-01-30T18:18:59.666Z,19.57
2023-01-30T18:21:28.071Z,15.63
2023-01-30T18:23:56.124Z,17.87
2023-01-30T18:26:25.873Z,15.77
2023-01-30T18:28:54.273Z,16.53
2023-01-30T18:31:23.828Z,15.93
2023-01-30T18:33:52.628Z,22.83
2023-01-30T18:36:22.450Z,14.73
2023-01-30T18:38:51.764Z,11.60
2023-01-30T18:41:21.779Z,18.80
2023-01-30T18:43:55.599Z,18.33
2023-01-30T18:46:24.210Z,14.10
2023-01-30T18:48:52.330Z,11.07
2023-01-30T18:51:22.778Z,16.23
2023-01-30T18:53:52.858Z,13.17
2023-01-30T18:56:22.979Z,27.03
2023-01-30T18:58:53.313Z,18.63
2023-01-30T19:01:23.505Z,14.53
2023-01-30T19:03:54.744Z,19.10
2023-01-30T19:06:23.112Z,18.57
2023-01-30T19:08:51.270Z,18.23
2023-01-30T19:11:38.962Z,17.87
2023-01-30T19:14:09.285Z,18.23
2023-01-30T19:16:39.077Z,19.97
2023-01-30T19:19:08.345Z,13.73
2023-01-30T19:21:37.100Z,18.07
2023-01-30T19:24:06.611Z,16.50
2023-01-30T19:26:34.993Z,17.90
2023-01-30T19:29:03.251Z,18.77
2023-01-30T19:31:32.894Z,16.10
2023-01-30T19:34:03.035Z,15.67
2023-01-30T19:36:32.799Z,17.77
2023-01-30T19:39:03.625Z,13.33
2023-01-30T19:41:33.638Z,15.13
2023-01-30T19:44:03.639Z,19.17
2023-01-30T19:46:33.223Z,11.70
2023-01-30T19:49:03.354Z,13.67
2023-01-30T19:51:33.937Z,18.90
2023-01-30T19:54:04.513Z,25.73
2023-01-30T19:56:33.143Z,15.87
2023-01-30T19:59:02.565Z,17.20
2023-01-30T20:01:35.686Z,15.37
2023-01-30T20:04:05.378Z,17.13
2023-01-30T20:06:35.626Z,19.93
2023-01-30T20:09:05.575Z,16.07
2023-01-30T20:11:35.482Z,13.20
2023-01-30T20:14:05.356Z,14.33
2023-01-30T20:16:35.984Z,17.93
2023-01-30T20:19:06.262Z,16.97
2023-01-30T20:21:34.975Z,15.00
2023-01-30T20:24:03.361Z,15.07
2023-01-30T20:26:34.848Z,15.57
2023-01-30T20:29:03.822Z,12.97
2023-01-30T20:31:32.220Z,15.70
2023-01-30T20:34:02.707Z,14.70
2023-01-30T20:36:31.009Z,12.33
2023-01-30T20:39:04.068Z,14.37
2023-01-30T20:41:35.102Z,15.00
2023-01-30T20:44:03.922Z,20.20
2023-01-30T20:46:35.676Z,13.17
2023-01-30T20:49:05.637Z,18.37
2023-01-30T20:51:34.892Z,18.50
2023-01-30T20:54:05.542Z,14.53
2023-01-30T20:56:35.359Z,13.13
2023-01-30T20:59:04.819Z,15.17
2023-01-30T21:01:33.511Z,15.53
2023-01-30T21:04:07.606Z,17.40
2023-01-30T21:06:44.776Z,17.50
2023-01-30T21:09:15.280Z,19.87
2023-01-30T21:11:43.398Z,16.13
2023-01-30T21:14:11.544Z,17.23
2023-01-30T21:16:39.805Z,16.37
2023-01-30T21:19:14.178Z,12.30
2023-01-30T21:21:43.901Z,13.27
2023-01-30T21:24:14.725Z,18.07
2023-01-30T21:26:46.337Z,15.60
2023-01-30T21:29:15.555Z,15.27
2023-01-30T21:31:44.864Z,23.00
2023-01-30T21:34:14.911Z,22.17
2023-01-30T21:36:43.189Z,12.67
2023-01-30T21:39:32.121Z,25.50
2023-01-30T21:42:17.740Z,20.87
2023-01-30T21:44:45.985Z,15.60
2023-01-30T21:47:14.302Z,17.57
2023-01-30T21:49:45.617Z,18.23
2023-01-30T21:52:13.736Z,19.77
2023-01-30T21:54:41.844Z,21.97
2023-01-30T21:57:09.978Z,24.47
2023-01-30T21:59:38.037Z,15.07
2023-01-30T22:02:06.282Z,17.67
2023-01-30T22:04:36.614Z,22.13
2023-01-30T22:07:07.011Z,18.17
2023-01-30T22:09:35.256Z,18.27
2023-01-30T22:12:03.343Z,21.27
2023-01-30T22:14:33.256Z,21.63
2023-01-30T22:17:01.441Z,22.57
2023-01-30T22:19:35.243Z,23.23
2023-01-30T22:22:05.370Z,14.60
2023-01-30T22:24:33.450Z,22.27
2023-01-30T22:27:01.590Z,20.53
2023-01-30T22:29:30.083Z,17.60
2023-01-30T22:31:58.254Z,20.67
2023-01-30T22:34:26.683Z,16.00
2023-01-30T22:36:54.825Z,15.00
2023-01-30T22:39:24.312Z,24.57
2023-01-30T22:41:52.556Z,23.07
2023-01-30T22:44:20.841Z,21.73
2023-01-30T22:46:53.014Z,23.00
2023-01-30T22:49:21.347Z,23.27
2023-01-30T22:51:49.653Z,16.47
2023-01-30T22:54:18.140Z,26.63
2023-01-30T22:56:49.786Z,21.73
2023-01-30T22:59:18.068Z,19.87
2023-01-30T23:01:48.148Z,23.03
2023-01-30T23:04:18.562Z,16.43
2023-01-30T23:06:47.526Z,18.27
2023-01-30T23:09:18.222Z,19.27
2023-01-30T23:12:10.003Z,19.20
2023-01-30T23:14:38.248Z,14.43
2023-01-30T23:17:27.613Z,16.73
2023-01-30T23:19:55.280Z,22.70
2023-01-30T23:22:24.427Z,18.93
2023-01-30T23:24:52.820Z,25.70
2023-01-30T23:27:23.507Z,16.13
2023-01-30T23:29:51.894Z,12.40
2023-01-30T23:32:20.113Z,21.20
2023-01-30T23:34:48.707Z,16.60
2023-01-30T23:37:17.494Z,15.33
2023-01-30T23:39:46.617Z,13.27
2023-01-30T23:42:14.689Z,11.67
2023-01-30T23:44:44.077Z,13.13
2023-01-30T23:47:12.116Z,16.57
2023-01-30T23:49:40.182Z,20.93
2023-01-30T23:52:10.328Z,19.50
2023-01-30T23:54:38.714Z,21.23
2023-01-30T23:57:06.779Z,14.80
2023-01-30T23:59:35.045Z,27.33
